createdAt,value
2016-03-08T00:00:20.700Z,944.54
2016-03-08T00:01:19.562Z,944.54
2016-03-08T00:02:19.581Z,944.58
2016-03-08T00:03:20.583Z,944.57
2016-03-08T00:04:19.556Z,944.6
2016-03-08T00:05:19.355Z,944.62
2016-03-08T00:06:19.780Z,944.62
2016-03-08T00:07:19.814Z,944.65
2016-03-08T00:08:20.566Z,944.65
2016-03-08T00:09:19.553Z,944.64
2016-03-08T00:10:19.946Z,944.69
2016-03-08T00:11:19.543Z,944.7
2016-03-08T00:12:19.530Z,944.7
2016-03-08T00:13:19.549Z,944.72
2016-03-08T00:14:20.613Z,944.73
2016-03-08T00:15:19.335Z,944.74
2016-03-08T00:16:19.774Z,944.76
2016-03-08T00:17:19.544Z,944.73
2016-03-08T00:18:20.593Z,944.72
2016-03-08T00:19:19.329Z,944.75
2016-03-08T00:20:19.738Z,944.7
2016-03-08T00:21:19.538Z,944.76
2016-03-08T00:22:22.635Z,944.78
2016-03-08T00:23:20.060Z,944.78
2016-03-08T00:24:22.015Z,944.77
2016-03-08T00:25:21.939Z,944.81
2016-03-08T00:26:21.927Z,944.82
2016-03-08T00:27:21.992Z,944.84
2016-03-08T00:28:49.670Z,944.84
2016-03-08T00:30:17.765Z,944.85
2016-03-08T00:31:46.771Z,944.83
2016-03-08T00:33:15.055Z,944.82
2016-03-08T00:34:50.826Z,944.84
2016-03-08T00:38:55.244Z,944.87
2016-03-08T00:40:53.780Z,944.86
2016-03-08T00:43:04.832Z,944.84
2016-03-08T00:45:13.712Z,944.87
2016-03-08T00:46:49.217Z,944.84
2016-03-08T00:48:18.314Z,944.87
2016-03-08T00:49:52.241Z,944.93
2016-03-08T00:52:08.590Z,944.92
2016-03-08T00:54:16.096Z,944.92
2016-03-08T00:56:10.085Z,944.95
2016-03-08T00:57:03.635Z,944.95
2016-03-08T00:58:03.544Z,944.91
2016-03-08T00:59:03.813Z,944.91
2016-03-08T01:00:04.440Z,944.92
2016-03-08T01:01:03.568Z,944.89
2016-03-08T01:02:03.633Z,944.88
2016-03-08T01:03:03.792Z,944.9
2016-03-08T01:04:03.342Z,944.89
2016-03-08T01:05:03.547Z,944.91
2016-03-08T01:06:04.097Z,944.95
